Flight Track Log - Related Links

Times and Time Zones

All times are in EDT time to prevent confusion due to time zone crossing. See the DAL3672 flight status page for this flight to view local times or setup timezone preferences in your user account.

Time Position Orientation Groundspeed Altitude Reporting Facility
EDT Latitude Longitude Course Direction KTS MPH feet Rate Location/Type
Wed 12:44:52 PM 43.0364 -71.4942 333° Northwest 274 315 5,200  Level Boston Center
Wed 12:45:52 PM 43.0825 -71.5561 316° Northwest 235 270 7,500 2,318 Climbing Boston Center
Wed 12:46:00 PM 42.9500 -71.9365 270° West  Level FlightAware Approximate
Wed 12:47:00 PM 42.9501 -72.0635 270° West  Level FlightAware Approximate
Wed 12:47:04 PM 43.0981 -71.6639 281° West 225 259 10,300  Level Boston Center
Wed 12:48:00 PM 42.9500 -72.1905 270° West  Level FlightAware Approximate
Wed 12:48:04 PM 43.1031 -71.8003 273° West 291 335 11,200  Level Boston Center
Wed 12:49:04 PM 43.1078 -71.9311 273° West 336 387 12,100 1,200 Climbing Boston Center
Wed 12:50:04 PM 43.1106 -72.0733 272° West 367 422 13,600 1,200 Climbing Boston Center
Wed 12:51:04 PM 43.1150 -72.2153 273° West 378 435 14,500 900 Climbing Boston Center
Wed 12:52:04 PM 43.1214 -72.3492 274° West 383 441 15,400 1,200 Climbing Boston Center
Wed 12:53:04 PM 43.1256 -72.4942 272° West 383 441 16,900 1,350 Climbing Boston Center
Wed 12:54:04 PM 43.1297 -72.6364 272° West 383 441 18,100 1,150 Climbing Boston Center
Wed 12:55:04 PM 43.1294 -72.7786 270° West 383 441 19,200 1,050 Climbing Boston Center
Wed 12:56:04 PM 43.1331 -72.9236 272° West 383 441 20,200 1,050 Climbing Boston Center
Wed 12:57:04 PM 43.1383 -73.0831 273° West 388 447 21,300 1,000 Climbing Boston Center
Wed 12:58:04 PM 43.1417 -73.2283 272° West 383 441 22,200 700 Climbing Boston Center
Wed 12:59:04 PM 43.1428 -73.3761 271° West 383 441 22,700 500 Climbing Boston Center
Wed 01:00:04 PM 43.1433 -73.5272 270° West 383 441 23,200 500 Climbing Boston Center
Wed 01:01:04 PM 43.1461 -73.6781 271° West 388 447 23,700 500 Climbing Boston Center
Wed 01:02:04 PM 43.1464 -73.8203 270° West 399 459 24,200 500 Climbing Boston Center
Wed 01:03:04 PM 43.1508 -73.9711 272° West 405 466 24,700 500 Climbing Boston Center
Wed 01:04:04 PM 43.1528 -74.1222 271° West 405 466 25,200 500 Climbing Boston Center
Wed 01:05:04 PM 43.1547 -74.2758 271° West 405 466 25,700 500 Climbing Boston Center
Wed 01:06:04 PM 43.1564 -74.4267 271° West 405 466 26,200 500 Climbing Boston Center
Wed 01:07:04 PM 43.1578 -74.5775 271° West 405 466 26,700 500 Climbing Boston Center
Wed 01:08:04 PM 43.1611 -74.7314 272° West 405 466 27,200 500 Climbing Boston Center
Wed 01:09:04 PM 43.1600 -74.8794 269° West 405 466 27,700 400 Climbing Boston Center
Wed 01:10:04 PM 43.1625 -75.0475 271° West 400 460 28,000 150 Climbing Boston Center
Wed 01:11:04 PM 43.1611 -75.2011 269° West 405 466 28,000  Level Boston Center
Wed 01:12:04 PM 43.1614 -75.3550 270° West 405 466 28,000  Level Boston Center
Wed 01:13:04 PM 43.1614 -75.5086 270° West 405 466 28,000  Level Boston Center
Wed 01:14:04 PM 43.1636 -75.6597 271° West 405 466 28,000  Level Boston Center
Wed 01:15:04 PM 43.1633 -75.8136 270° West 405 466 28,000  Level Boston Center
Wed 01:16:04 PM 43.1631 -75.9644 270° West 405 466 28,000  Level Boston Center
Wed 01:17:04 PM 43.1625 -76.1125 270° West 405 466 28,000  Level Boston Center
Wed 01:18:04 PM 43.1575 -76.2658 267° West 400 460 28,000  Level Boston Center
Wed 01:19:02 PM 43.1439 -76.4142 263° West 402 463 28,000  Level Cleveland Center
Wed 01:20:02 PM 43.1303 -76.5633 263° West 417 480 28,000  Level Cleveland Center
Wed 01:21:02 PM 43.1219 -76.6833 265° West 411 473 28,000  Level Cleveland Center
Wed 01:22:02 PM 43.1044 -76.8494 262° West 411 473 28,000  Level Cleveland Center
Wed 01:23:02 PM 43.0903 -76.9981 263° West 406 467 28,000  Level Cleveland Center
Wed 01:24:02 PM 43.0803 -77.1436 265° West 406 467 28,000  Level Cleveland Center
Wed 01:25:02 PM 43.0636 -77.2925 261° West 401 461 28,000  Level Cleveland Center
Wed 01:26:02 PM 43.0492 -77.4408 262° West 401 461 28,000  Level Cleveland Center
Wed 01:27:02 PM 43.0364 -77.5894 263° West 401 461 28,000  Level Cleveland Center
Wed 01:28:02 PM 43.0233 -77.7375 263° West 401 461 28,000  Level Cleveland Center
Wed 01:29:02 PM 43.0081 -77.8831 262° West 396 456 28,000  Level Cleveland Center
Wed 01:30:02 PM 42.9931 -78.0428 263° West 391 450 28,000  Level Cleveland Center
Wed 01:31:02 PM 42.9772 -78.1881 262° West 391 450 28,000  Level Cleveland Center
Wed 01:32:02 PM 42.9636 -78.3333 263° West 391 450 28,000  Level Cleveland Center
Wed 01:33:02 PM 42.9475 -78.4758 261° West 391 450 28,000  Level Cleveland Center
Wed 01:34:02 PM 42.9333 -78.6236 263° West 391 450 28,000  Level Cleveland Center
Wed 01:35:02 PM 42.9128 -78.7661 259° West 391 450 28,000  Level Cleveland Center
Wed 01:36:02 PM 42.8919 -78.9083 259° West 391 450 28,000  Level Cleveland Center
Wed 01:37:02 PM 42.8731 -79.0506 260° West 391 450 28,000  Level Cleveland Center
Wed 01:38:02 PM 42.8519 -79.1983 259° West 391 450 28,000  Level Cleveland Center
Wed 01:39:02 PM 42.8286 -79.3403 257° West 391 450 28,000  Level Cleveland Center
Wed 01:40:02 PM 42.8114 -79.4822 261° West 391 450 28,000  Level Cleveland Center
Wed 01:41:02 PM 42.7897 -79.6242 258° West 391 450 28,000  Level Cleveland Center
Wed 01:42:02 PM 42.7658 -79.7658 257° West 391 450 28,000  Level Cleveland Center
Wed 01:43:02 PM 42.7500 -79.9103 262° West 391 450 28,000  Level Cleveland Center
Wed 01:44:02 PM 42.7425 -80.0631 266° West 402 463 28,000  Level Cleveland Center
Wed 01:45:02 PM 42.7347 -80.2044 266° West 402 463 28,000  Level Cleveland Center
Wed 01:46:02 PM 42.7308 -80.3569 268° West 396 456 28,000  Level Cleveland Center
Wed 01:47:02 PM 42.7228 -80.5011 266° West 396 456 28,000  Level Cleveland Center
Wed 01:48:02 PM 42.7186 -80.6483 268° West 396 456 28,000  Level Cleveland Center
Wed 01:49:02 PM 42.7100 -80.7950 265° West 391 450 28,000  Level Cleveland Center
Wed 01:50:02 PM 42.6994 -80.9364 264° West 386 444 28,000 -150 Level Cleveland Center
Wed 01:51:02 PM 42.6864 -81.0661 262° West 386 444 27,700 -950 Descending Cleveland Center
Wed 01:52:02 PM 42.6689 -81.2100 261° West 391 450 26,100 -1,500 Descending Cleveland Center
Wed 01:53:02 PM 42.6536 -81.3483 262° West 386 444 24,700 -1,350 Descending Cleveland Center
Wed 01:54:02 PM 42.6506 -81.4753 268° West 363 418 23,400 -1,433 Descending Cleveland Center
Wed 01:56:02 PM 42.7444 -81.6942 300° West 333 383 20,400 -1,500 Descending Cleveland Center
Wed 01:57:02 PM 42.7228 -81.7842 252° West 251 289 18,900 -1,400 Descending Cleveland Center
Wed 01:58:02 PM 42.6989 -81.8800 251° West 257 296 17,600 -1,150 Descending Cleveland Center
Wed 01:59:02 PM 42.6706 -81.9781 249° West 268 308 16,600 -1,000 Descending Cleveland Center
Wed 02:00:02 PM 42.6444 -82.0736 250° West 268 308 15,600 -900 Descending Cleveland Center
Wed 02:01:02 PM 42.6181 -82.1631 248° West 268 308 14,800 -900 Descending Cleveland Center
Wed 02:02:02 PM 42.5919 -82.2556 249° West 268 308 13,800 -1,049 Descending Cleveland Center
Wed 02:02:45 PM 42.5678 -82.3339 247° West 269 310 13,000 -1,000 Descending Cleveland Center
Wed 02:03:02 PM 42.5633 -82.3506 250° West 273 314 12,800 -806 Descending Cleveland Center
Wed 02:03:52 PM 42.5389 -82.4403 250° West 284 327 12,100 -424 Descending Cleveland Center
Wed 02:04:41 PM 42.5147 -82.5211 248° West 269 310 12,100  Level Cleveland Center
Wed 02:05:02 PM 42.5081 -82.5436 248° West 279 321 12,100  Level Cleveland Center
Wed 02:05:48 PM 42.4794 -82.6269 245° Southwest 311 358 12,100  Level Cleveland Center
Wed 02:06:49 PM 42.4400 -82.7383 244° Southwest 305 351 12,100  Level Cleveland Center
Wed 02:07:44 PM 42.4092 -82.8300 246° West 306 352 12,100  Level Cleveland Center
Wed 02:08:02 PM 42.3983 -82.8494 233° Southwest 298 343 12,100  Level Cleveland Center
Wed 02:08:51 PM 42.3650 -82.9467 245° Southwest 306 352 12,100  Level Cleveland Center
Wed 02:09:52 PM 42.3294 -83.0547 246° West 306 352 12,100  Level Cleveland Center
Wed 02:10:36 PM 42.3011 -83.1258 242° Southwest 305 351 12,100  Level FAA TRACON SMA TRACON (SMA)
Wed 02:10:56 PM 42.2908 -83.1547 244° Southwest 276 318 12,100  Level FAA TRACON SMA TRACON (SMA)
Wed 02:11:16 PM 42.2811 -83.1811 244° Southwest 249 287 12,100  Level FAA TRACON SMA TRACON (SMA)
Wed 02:11:36 PM 42.2619 -83.2047 222° Southwest 244 281 12,100  Level FAA TRACON SMA TRACON (SMA)
Wed 02:11:56 PM 42.2442 -83.2189 211° Southwest 243 280 12,100 -600 Level FAA TRACON SMA TRACON (SMA)
Wed 02:12:16 PM 42.2256 -83.2333 210° Southwest 246 283 11,700 -1,756 Descending FAA TRACON SMA TRACON (SMA)
Wed 02:12:37 PM 42.2031 -83.2508 210° Southwest 243 280 10,900 -1,902 Descending FAA TRACON SMA TRACON (SMA)
Wed 02:12:57 PM 42.1847 -83.2644 209° Southwest 242 278 10,400 -1,692 Descending FAA TRACON SMA TRACON (SMA)
Wed 02:13:16 PM 42.1661 -83.2781 208° Southwest 243 280 9,800 -2,000 Descending FAA TRACON SMA TRACON (SMA)
Wed 02:13:36 PM 42.1433 -83.2950 209° Southwest 243 280 9,100 -1,770 Descending FAA TRACON SMA TRACON (SMA)
Wed 02:14:17 PM 42.1064 -83.3228 209° Southwest 245 282 8,000 -1,770 Descending FAA TRACON SMA TRACON (SMA)
Wed 02:14:37 PM 42.0831 -83.3403 209° Southwest 247 284 7,300 -1,950 Descending FAA TRACON SMA TRACON (SMA)
Wed 02:14:57 PM 42.0642 -83.3547 210° Southwest 251 289 6,700 -1,650 Descending FAA TRACON SMA TRACON (SMA)
Wed 02:15:17 PM 42.0447 -83.3686 208° Southwest 254 292 6,200 -1,692 Descending FAA TRACON SMA TRACON (SMA)
Wed 02:15:36 PM 42.0250 -83.3831 209° Southwest 259 298 5,600 -1,692 Descending FAA TRACON SMA TRACON (SMA)
Wed 02:15:56 PM 41.9994 -83.4006 207° Southwest 263 303 5,100 -750 Descending FAA TRACON SMA TRACON (SMA)
Wed 02:16:16 PM 41.9789 -83.4147 207° Southwest 268 308 5,100  Level FAA TRACON SMA TRACON (SMA)
Wed 02:16:36 PM 41.9583 -83.4286 207° Southwest 268 308 5,100  Level FAA TRACON SMA TRACON (SMA)
Wed 02:16:57 PM 41.9328 -83.4458 207° Southwest 267 307 5,100  Level FAA TRACON SMA TRACON (SMA)
Wed 02:17:17 PM 41.9119 -83.4594 206° Southwest 268 308 5,100  Level FAA TRACON SMA TRACON (SMA)
Wed 02:17:37 PM 41.8914 -83.4736 207° Southwest 270 311 5,100 -615 Level FAA TRACON SMA TRACON (SMA)
Wed 02:17:56 PM 41.8656 -83.4911 207° Southwest 269 310 4,700 -1,077 Descending FAA TRACON SMA TRACON (SMA)
Wed 02:18:16 PM 41.8497 -83.5094 221° Southwest 254 292 4,400 -900 Descending FAA TRACON SMA TRACON (SMA)
Wed 02:18:36 PM 41.8472 -83.5411 264° West 230 265 4,100 -450 Descending FAA TRACON SMA TRACON (SMA)
Wed 02:18:56 PM 41.8583 -83.5586 310° West 210 242 4,100  Level FAA TRACON SMA TRACON (SMA)
Wed 02:19:17 PM 41.8781 -83.5600 357° North 203 234 4,100  Level FAA TRACON SMA TRACON (SMA)
Wed 02:19:37 PM 41.8986 -83.5564 North 198 228 4,100  Level FAA TRACON SMA TRACON (SMA)
Wed 02:19:57 PM 41.9150 -83.5536 North 191 220 4,100  Level FAA TRACON SMA TRACON (SMA)

Login

Don't have an account? Register now (free) for customized features, flight alerts, and more!